sensor_id;sensor_type;location;lat;lon;timestamp;pressure;altitude;pressure_sealevel;temperature;humidity
39223;BME280;24936;46.328;11.026;2023-02-21T00:02:34;94906.00;;;0.44;81.54
39223;BME280;24936;46.328;11.026;2023-02-21T00:05:18;94908.66;;;0.42;81.99
39223;BME280;24936;46.328;11.026;2023-02-21T00:08:02;94911.88;;;0.28;82.03
39223;BME280;24936;46.328;11.026;2023-02-21T00:10:46;94910.00;;;0.11;82.53
39223;BME280;24936;46.328;11.026;2023-02-21T00:13:35;94917.81;;;0.10;82.84
39223;BME280;24936;46.328;11.026;2023-02-21T00:16:19;94915.31;;;0.08;83.09
39223;BME280;24936;46.328;11.026;2023-02-21T00:19:03;94909.03;;;0.14;82.95
39223;BME280;24936;46.328;11.026;2023-02-21T00:21:47;94907.13;;;0.38;82.01
39223;BME280;24936;46.328;11.026;2023-02-21T00:24:31;94898.16;;;0.45;81.59
39223;BME280;24936;46.328;11.026;2023-02-21T00:27:15;94899.28;;;0.40;81.62
39223;BME280;24936;46.328;11.026;2023-02-21T00:29:59;94887.25;;;0.39;81.66
39223;BME280;24936;46.328;11.026;2023-02-21T00:32:43;94894.19;;;0.38;82.11
39223;BME280;24936;46.328;11.026;2023-02-21T00:35:27;94892.84;;;0.29;82.23
39223;BME280;24936;46.328;11.026;2023-02-21T00:38:11;94884.31;;;0.47;81.73
39223;BME280;24936;46.328;11.026;2023-02-21T00:40:55;94881.06;;;0.22;81.89
39223;BME280;24936;46.328;11.026;2023-02-21T00:43:39;94880.59;;;0.52;81.42
39223;BME280;24936;46.328;11.026;2023-02-21T00:46:23;94872.00;;;0.52;81.24
39223;BME280;24936;46.328;11.026;2023-02-21T00:49:07;94871.66;;;0.40;81.34
39223;BME280;24936;46.328;11.026;2023-02-21T00:51:51;94869.00;;;0.21;82.25
39223;BME280;24936;46.328;11.026;2023-02-21T00:54:36;94876.72;;;0.23;82.29
39223;BME280;24936;46.328;11.026;2023-02-21T00:57:20;94882.47;;;0.29;82.26
39223;BME280;24936;46.328;11.026;2023-02-21T01:00:05;94867.94;;;0.46;81.58
39223;BME280;24936;46.328;11.026;2023-02-21T01:02:50;94876.38;;;0.30;81.14
39223;BME280;24936;46.328;11.026;2023-02-21T01:05:34;94883.63;;;0.22;81.89
39223;BME280;24936;46.328;11.026;2023-02-21T01:08:18;94877.84;;;0.17;82.37
39223;BME280;24936;46.328;11.026;2023-02-21T01:11:02;94877.44;;;0.26;81.90
39223;BME280;24936;46.328;11.026;2023-02-21T01:13:46;94867.63;;;0.33;81.54
39223;BME280;24936;46.328;11.026;2023-02-21T01:16:31;94872.91;;;0.11;81.96
39223;BME280;24936;46.328;11.026;2023-02-21T01:19:16;94870.53;;;0.06;82.11
39223;BME280;24936;46.328;11.026;2023-02-21T01:22:02;94872.75;;;-0.05;82.77
39223;BME280;24936;46.328;11.026;2023-02-21T01:24:50;94863.09;;;-0.02;82.49
39223;BME280;24936;46.328;11.026;2023-02-21T01:27:34;94860.22;;;-0.14;82.71
39223;BME280;24936;46.328;11.026;2023-02-21T01:30:18;94860.13;;;-0.13;82.81
39223;BME280;24936;46.328;11.026;2023-02-21T01:33:02;94863.44;;;-0.30;83.07
39223;BME280;24936;46.328;11.026;2023-02-21T01:35:45;94865.03;;;-0.48;83.31
39223;BME280;24936;46.328;11.026;2023-02-21T01:38:32;94852.25;;;-0.10;82.75
39223;BME280;24936;46.328;11.026;2023-02-21T01:41:16;94853.09;;;-0.30;83.35
39223;BME280;24936;46.328;11.026;2023-02-21T01:44:06;94846.00;;;0.15;82.59
39223;BME280;24936;46.328;11.026;2023-02-21T01:46:50;94838.59;;;-0.34;82.55
39223;BME280;24936;46.328;11.026;2023-02-21T01:49:37;94838.56;;;-0.55;83.79
39223;BME280;24936;46.328;11.026;2023-02-21T01:52:23;94844.28;;;-0.47;83.77
39223;BME280;24936;46.328;11.026;2023-02-21T01:55:09;94838.97;;;-0.64;84.37
39223;BME280;24936;46.328;11.026;2023-02-21T01:57:54;94830.22;;;-0.82;84.73
39223;BME280;24936;46.328;11.026;2023-02-21T02:00:39;94833.19;;;-0.91;85.21
39223;BME280;24936;46.328;11.026;2023-02-21T02:03:24;94824.88;;;-0.78;84.90
39223;BME280;24936;46.328;11.026;2023-02-21T02:06:13;94828.03;;;-0.91;85.27
39223;BME280;24936;46.328;11.026;2023-02-21T02:08:58;94826.25;;;-0.27;84.44
39223;BME280;24936;46.328;11.026;2023-02-21T02:14:52;94823.59;;;-0.89;84.17
39223;BME280;24936;46.328;11.026;2023-02-21T02:17:31;94826.56;;;-0.99;85.51
39223;BME280;24936;46.328;11.026;2023-02-21T02:25:21;94821.97;;;-1.35;86.55
39223;BME280;24936;46.328;11.026;2023-02-21T02:36:40;94797.66;;;-1.31;86.58
39223;BME280;24936;46.328;11.026;2023-02-21T02:44:50;94800.00;;;-1.69;87.15
39223;BME280;24936;46.328;11.026;2023-02-21T02:47:22;94793.38;;;-1.30;86.84
39223;BME280;24936;46.328;11.026;2023-02-21T02:49:56;94796.59;;;-1.25;86.74
39223;BME280;24936;46.328;11.026;2023-02-21T02:52:23;94789.47;;;-1.41;87.15
39223;BME280;24936;46.328;11.026;2023-02-21T02:55:00;94795.56;;;-1.21;86.25
39223;BME280;24936;46.328;11.026;2023-02-21T02:57:28;94792.91;;;-0.97;85.42
39223;BME280;24936;46.328;11.026;2023-02-21T02:59:58;94791.38;;;-1.24;85.76
39223;BME280;24936;46.328;11.026;2023-02-21T03:02:36;94784.53;;;-1.25;86.46
39223;BME280;24936;46.328;11.026;2023-02-21T03:10:13;94791.88;;;-1.60;87.68
39223;BME280;24936;46.328;11.026;2023-02-21T03:13:11;94788.69;;;-1.20;86.67
39223;BME280;24936;46.328;11.026;2023-02-21T03:20:59;94776.28;;;-1.57;87.56
39223;BME280;24936;46.328;11.026;2023-02-21T03:23:28;94775.75;;;-1.65;87.72
39223;BME280;24936;46.328;11.026;2023-02-21T03:25:58;94770.19;;;-1.78;87.55
39223;BME280;24936;46.328;11.026;2023-02-21T03:28:25;94769.66;;;-1.86;87.96
39223;BME280;24936;46.328;11.026;2023-02-21T03:30:54;94772.06;;;-1.81;88.46
39223;BME280;24936;46.328;11.026;2023-02-21T03:33:20;94767.28;;;-1.68;88.24
39223;BME280;24936;46.328;11.026;2023-02-21T03:35:47;94765.13;;;-1.57;88.33
39223;BME280;24936;46.328;11.026;2023-02-21T03:38:12;94767.28;;;-1.68;87.70
39223;BME280;24936;46.328;11.026;2023-02-21T03:40:38;94762.28;;;-1.73;88.50
39223;BME280;24936;46.328;11.026;2023-02-21T03:43:04;94758.59;;;-1.66;88.61
39223;BME280;24936;46.328;11.026;2023-02-21T03:45:32;94762.41;;;-1.32;87.42
39223;BME280;24936;46.328;11.026;2023-02-21T03:47:57;94763.38;;;-1.12;86.73
39223;BME280;24936;46.328;11.026;2023-02-21T03:53:44;94772.78;;;-1.54;86.69
39223;BME280;24936;46.328;11.026;2023-02-21T03:56:10;94768.13;;;-1.24;86.48
39223;BME280;24936;46.328;11.026;2023-02-21T03:58:35;94756.00;;;-1.21;86.28
39223;BME280;24936;46.328;11.026;2023-02-21T04:01:00;94763.81;;;-1.67;86.66
39223;BME280;24936;46.328;11.026;2023-02-21T04:03:26;94773.66;;;-1.77;87.38
39223;BME280;24936;46.328;11.026;2023-02-21T04:05:51;94760.75;;;-1.77;87.72
39223;BME280;24936;46.328;11.026;2023-02-21T04:08:17;94758.41;;;-1.61;87.21
39223;BME280;24936;46.328;11.026;2023-02-21T04:10:42;94756.59;;;-1.81;87.44
39223;BME280;24936;46.328;11.026;2023-02-21T04:13:07;94761.41;;;-1.96;88.30
39223;BME280;24936;46.328;11.026;2023-02-21T04:15:34;94754.69;;;-2.24;87.70
39223;BME280;24936;46.328;11.026;2023-02-21T04:17:59;94753.78;;;-1.99;88.71
39223;BME280;24936;46.328;11.026;2023-02-21T04:20:25;94754.53;;;-1.29;87.03
39223;BME280;24936;46.328;11.026;2023-02-21T04:22:50;94751.19;;;-1.75;86.63
39223;BME280;24936;46.328;11.026;2023-02-21T04:25:16;94750.88;;;-2.13;87.46
39223;BME280;24936;46.328;11.026;2023-02-21T04:27:41;94747.84;;;-2.01;88.40
39223;BME280;24936;46.328;11.026;2023-02-21T04:30:07;94748.16;;;-1.63;87.38
39223;BME280;24936;46.328;11.026;2023-02-21T04:32:32;94747.41;;;-1.66;87.59
39223;BME280;24936;46.328;11.026;2023-02-21T04:34:58;94740.50;;;-1.66;87.25
39223;BME280;24936;46.328;11.026;2023-02-21T04:37:23;94740.06;;;-2.00;88.09
39223;BME280;24936;46.328;11.026;2023-02-21T04:39:49;94731.91;;;-2.12;88.10
39223;BME280;24936;46.328;11.026;2023-02-21T04:42:14;94733.66;;;-1.67;88.03
39223;BME280;24936;46.328;11.026;2023-02-21T04:44:40;94729.00;;;-1.57;87.50
39223;BME280;24936;46.328;11.026;2023-02-21T04:47:05;94736.06;;;-1.62;86.55
39223;BME280;24936;46.328;11.026;2023-02-21T04:49:30;94727.22;;;-1.57;86.69
39223;BME280;24936;46.328;11.026;2023-02-21T04:51:56;94734.16;;;-1.57;86.28
39223;BME280;24936;46.328;11.026;2023-02-21T04:54:21;94737.22;;;-1.47;86.40
39223;BME280;24936;46.328;11.026;2023-02-21T04:56:47;94734.16;;;-1.35;85.63
39223;BME280;24936;46.328;11.026;2023-02-21T04:59:12;94726.44;;;-1.36;85.48
39223;BME280;24936;46.328;11.026;2023-02-21T05:01:37;94727.81;;;-1.28;85.46
39223;BME280;24936;46.328;11.026;2023-02-21T05:04:03;94717.09;;;-1.39;85.33
39223;BME280;24936;46.328;11.026;2023-02-21T05:06:29;94714.69;;;-1.44;85.42
39223;BME280;24936;46.328;11.026;2023-02-21T05:08:56;94722.38;;;-1.42;85.76
39223;BME280;24936;46.328;11.026;2023-02-21T05:11:22;94710.03;;;-1.56;86.00
39223;BME280;24936;46.328;11.026;2023-02-21T05:13:48;94719.84;;;-1.66;86.29
39223;BME280;24936;46.328;11.026;2023-02-21T05:16:15;94708.56;;;-1.86;87.17
39223;BME280;24936;46.328;11.026;2023-02-21T05:18:41;94715.47;;;-1.86;87.42
39223;BME280;24936;46.328;11.026;2023-02-21T05:21:07;94712.88;;;-2.08;87.62
39223;BME280;24936;46.328;11.026;2023-02-21T05:23:33;94713.78;;;-2.33;88.25
39223;BME280;24936;46.328;11.026;2023-02-21T05:26:00;94703.13;;;-2.24;88.50
39223;BME280;24936;46.328;11.026;2023-02-21T05:28:26;94698.72;;;-1.98;88.52
39223;BME280;24936;46.328;11.026;2023-02-21T05:30:52;94694.88;;;-2.34;87.94
39223;BME280;24936;46.328;11.026;2023-02-21T05:33:17;94697.97;;;-2.24;88.62
39223;BME280;24936;46.328;11.026;2023-02-21T05:35:42;94696.06;;;-2.19;88.84
39223;BME280;24936;46.328;11.026;2023-02-21T05:38:10;94696.47;;;-2.53;88.47
39223;BME280;24936;46.328;11.026;2023-02-21T05:40:36;94683.06;;;-2.63;89.38
39223;BME280;24936;46.328;11.026;2023-02-21T05:43:01;94678.69;;;-2.61;89.64
39223;BME280;24936;46.328;11.026;2023-02-21T05:45:27;94683.69;;;-2.56;89.69
39223;BME280;24936;46.328;11.026;2023-02-21T05:47:52;94691.16;;;-2.50;90.28
39223;BME280;24936;46.328;11.026;2023-02-21T05:50:22;94694.53;;;-1.78;88.48
39223;BME280;24936;46.328;11.026;2023-02-21T05:52:48;94691.06;;;-1.77;87.25
39223;BME280;24936;46.328;11.026;2023-02-21T05:55:13;94687.25;;;-2.37;87.81
39223;BME280;24936;46.328;11.026;2023-02-21T05:57:38;94684.72;;;-2.15;87.99
39223;BME280;24936;46.328;11.026;2023-02-21T06:00:04;94688.06;;;-1.89;87.96
39223;BME280;24936;46.328;11.026;2023-02-21T06:02:30;94694.22;;;-1.93;87.68
39223;BME280;24936;46.328;11.026;2023-02-21T06:04:55;94696.53;;;-1.42;86.94
39223;BME280;24936;46.328;11.026;2023-02-21T06:07:20;94692.78;;;-1.78;87.00
39223;BME280;24936;46.328;11.026;2023-02-21T06:09:46;94710.50;;;-1.91;87.59
39223;BME280;24936;46.328;11.026;2023-02-21T06:12:11;94713.38;;;-1.76;87.55
39223;BME280;24936;46.328;11.026;2023-02-21T06:14:37;94711.16;;;-1.63;86.80
39223;BME280;24936;46.328;11.026;2023-02-21T06:17:02;94716.00;;;-1.56;86.23
39223;BME280;24936;46.328;11.026;2023-02-21T06:19:27;94723.44;;;-1.92;86.82
39223;BME280;24936;46.328;11.026;2023-02-21T06:21:53;94721.28;;;-2.03;87.21
39223;BME280;24936;46.328;11.026;2023-02-21T06:24:18;94710.06;;;-2.26;87.54
39223;BME280;24936;46.328;11.026;2023-02-21T06:26:44;94712.00;;;-2.31;88.37
39223;BME280;24936;46.328;11.026;2023-02-21T06:29:10;94710.63;;;-2.18;88.54
39223;BME280;24936;46.328;11.026;2023-02-21T06:31:35;94706.09;;;-2.35;88.92
39223;BME280;24936;46.328;11.026;2023-02-21T06:34:01;94708.38;;;-2.51;89.10
39223;BME280;24936;46.328;11.026;2023-02-21T06:36:27;94712.97;;;-2.11;89.06
39223;BME280;24936;46.328;11.026;2023-02-21T06:38:55;94705.19;;;-1.88;88.48
39223;BME280;24936;46.328;11.026;2023-02-21T06:41:24;94712.81;;;-1.62;87.34
39223;BME280;24936;46.328;11.026;2023-02-21T06:43:52;94709.63;;;-1.25;86.57
39223;BME280;24936;46.328;11.026;2023-02-21T06:46:19;94710.75;;;-1.32;86.18
39223;BME280;24936;46.328;11.026;2023-02-21T06:48:45;94710.25;;;-1.40;86.58
39223;BME280;24936;46.328;11.026;2023-02-21T06:51:11;94715.44;;;-1.19;86.51
39223;BME280;24936;46.328;11.026;2023-02-21T06:53:39;94722.53;;;-1.04;85.59
39223;BME280;24936;46.328;11.026;2023-02-21T06:56:05;94727.88;;;-1.29;86.06
39223;BME280;24936;46.328;11.026;2023-02-21T06:58:31;94730.22;;;-1.45;86.38
39223;BME280;24936;46.328;11.026;2023-02-21T07:00:56;94729.78;;;-1.55;87.02
39223;BME280;24936;46.328;11.026;2023-02-21T07:03:21;94728.97;;;-1.79;87.24
39223;BME280;24936;46.328;11.026;2023-02-21T07:05:47;94735.56;;;-1.72;87.90
39223;BME280;24936;46.328;11.026;2023-02-21T07:08:12;94733.88;;;-1.73;88.42
39223;BME280;24936;46.328;11.026;2023-02-21T07:10:38;94743.81;;;-1.62;88.08
39223;BME280;24936;46.328;11.026;2023-02-21T07:13:03;94749.84;;;-1.86;88.24
39223;BME280;24936;46.328;11.026;2023-02-21T07:15:28;94744.47;;;-1.79;88.55
39223;BME280;24936;46.328;11.026;2023-02-21T07:17:54;94745.91;;;-1.72;88.80
39223;BME280;24936;46.328;11.026;2023-02-21T07:20:19;94749.56;;;-1.56;88.56
39223;BME280;24936;46.328;11.026;2023-02-21T07:22:45;94751.44;;;-1.37;88.05
39223;BME280;24936;46.328;11.026;2023-02-21T07:25:19;94747.84;;;-1.33;87.87
39223;BME280;24936;46.328;11.026;2023-02-21T07:27:48;94751.13;;;-1.29;87.70
39223;BME280;24936;46.328;11.026;2023-02-21T07:30:14;94746.34;;;-0.54;86.44
39223;BME280;24936;46.328;11.026;2023-02-21T07:32:41;94740.38;;;-0.36;84.47
39223;BME280;24936;46.328;11.026;2023-02-21T07:35:06;94744.63;;;-0.35;83.89
39223;BME280;24936;46.328;11.026;2023-02-21T07:37:32;94737.47;;;0.10;83.44
39223;BME280;24936;46.328;11.026;2023-02-21T07:39:57;94737.03;;;0.39;82.12
39223;BME280;24936;46.328;11.026;2023-02-21T07:42:23;94725.94;;;0.54;81.27
39223;BME280;24936;46.328;11.026;2023-02-21T07:44:54;94727.38;;;0.97;80.00
39223;BME280;24936;46.328;11.026;2023-02-21T07:47:21;94730.94;;;1.64;77.44
39223;BME280;24936;46.328;11.026;2023-02-21T07:49:46;94730.69;;;1.69;76.54
39223;BME280;24936;46.328;11.026;2023-02-21T07:52:12;94727.06;;;1.56;77.37
39223;BME280;24936;46.328;11.026;2023-02-21T07:54:37;94730.88;;;1.48;77.21
39223;BME280;24936;46.328;11.026;2023-02-21T07:57:03;94728.38;;;1.80;75.82
39223;BME280;24936;46.328;11.026;2023-02-21T07:59:28;94729.25;;;2.61;74.34
39223;BME280;24936;46.328;11.026;2023-02-21T08:01:53;94728.13;;;2.97;71.20
39223;BME280;24936;46.328;11.026;2023-02-21T08:04:19;94720.59;;;3.23;72.74
39223;BME280;24936;46.328;11.026;2023-02-21T08:06:47;94726.63;;;2.93;72.34
39223;BME280;24936;46.328;11.026;2023-02-21T08:09:13;94724.41;;;3.01;72.89
39223;BME280;24936;46.328;11.026;2023-02-21T08:11:38;94719.00;;;2.90;73.88
39223;BME280;24936;46.328;11.026;2023-02-21T08:14:05;94719.66;;;3.24;72.59
39223;BME280;24936;46.328;11.026;2023-02-21T08:16:30;94722.19;;;2.95;73.08
39223;BME280;24936;46.328;11.026;2023-02-21T08:18:56;94722.56;;;2.73;74.49
39223;BME280;24936;46.328;11.026;2023-02-21T08:21:21;94722.97;;;3.12;74.53
39223;BME280;24936;46.328;11.026;2023-02-21T08:23:47;94722.44;;;3.21;73.35
39223;BME280;24936;46.328;11.026;2023-02-21T08:26:12;94720.97;;;3.01;73.66
39223;BME280;24936;46.328;11.026;2023-02-21T08:28:37;94716.28;;;3.08;73.18
39223;BME280;24936;46.328;11.026;2023-02-21T08:31:03;94719.34;;;3.74;71.61
39223;BME280;24936;46.328;11.026;2023-02-21T08:33:28;94716.63;;;4.33;69.44
39223;BME280;24936;46.328;11.026;2023-02-21T08:35:54;94726.06;;;4.07;69.75
39223;BME280;24936;46.328;11.026;2023-02-21T08:38:19;94713.63;;;3.83;70.42
39223;BME280;24936;46.328;11.026;2023-02-21T08:40:45;94716.22;;;3.69;69.72
39223;BME280;24936;46.328;11.026;2023-02-21T08:43:10;94716.00;;;3.72;70.37
39223;BME280;24936;46.328;11.026;2023-02-21T08:45:36;94726.06;;;3.78;69.81
39223;BME280;24936;46.328;11.026;2023-02-21T08:48:02;94722.25;;;3.98;70.46
39223;BME280;24936;46.328;11.026;2023-02-21T08:50:28;94726.53;;;4.13;70.35
39223;BME280;24936;46.328;11.026;2023-02-21T08:52:57;94714.28;;;4.43;70.33
39223;BME280;24936;46.328;11.026;2023-02-21T08:55:23;94705.47;;;6.05;65.90
39223;BME280;24936;46.328;11.026;2023-02-21T08:57:49;94701.06;;;7.04;62.20
39223;BME280;24936;46.328;11.026;2023-02-21T09:00:16;94706.44;;;7.39;61.17
39223;BME280;24936;46.328;11.026;2023-02-21T09:02:42;94701.00;;;7.64;59.91
39223;BME280;24936;46.328;11.026;2023-02-21T09:05:17;94703.78;;;7.74;60.22
39223;BME280;24936;46.328;11.026;2023-02-21T09:07:46;94701.38;;;7.60;59.45
39223;BME280;24936;46.328;11.026;2023-02-21T09:10:12;94698.91;;;7.81;59.24
39223;BME280;24936;46.328;11.026;2023-02-21T09:12:40;94693.00;;;9.24;55.42
39223;BME280;24936;46.328;11.026;2023-02-21T09:15:06;94685.59;;;10.02;53.06
39223;BME280;24936;46.328;11.026;2023-02-21T09:17:32;94682.63;;;11.28;51.44
39223;BME280;24936;46.328;11.026;2023-02-21T09:20:06;94671.94;;;13.00;45.80
39223;BME280;24936;46.328;11.026;2023-02-21T09:22:32;94677.50;;;13.33;42.98
39223;BME280;24936;46.328;11.026;2023-02-21T09:24:58;94671.72;;;13.48;42.87
39223;BME280;24936;46.328;11.026;2023-02-21T09:27:24;94671.94;;;13.36;44.10
39223;BME280;24936;46.328;11.026;2023-02-21T09:30:18;94668.13;;;14.01;41.55
39223;BME280;24936;46.328;11.026;2023-02-21T09:32:46;94677.06;;;13.20;43.65
39223;BME280;24936;46.328;11.026;2023-02-21T09:35:13;94678.00;;;13.46;44.98
39223;BME280;24936;46.328;11.026;2023-02-21T09:37:39;94675.09;;;12.85;43.85
39223;BME280;24936;46.328;11.026;2023-02-21T09:40:24;94672.47;;;13.22;43.52
39223;BME280;24936;46.328;11.026;2023-02-21T09:42:55;94659.88;;;13.52;40.53
39223;BME280;24936;46.328;11.026;2023-02-21T09:45:22;94653.31;;;13.82;40.59
39223;BME280;24936;46.328;11.026;2023-02-21T09:47:53;94653.09;;;13.49;39.04
39223;BME280;24936;46.328;11.026;2023-02-21T09:50:24;94655.59;;;14.38;37.64
39223;BME280;24936;46.328;11.026;2023-02-21T09:52:52;94651.78;;;14.32;38.53
39223;BME280;24936;46.328;11.026;2023-02-21T09:55:27;94654.50;;;14.49;38.27
39223;BME280;24936;46.328;11.026;2023-02-21T09:57:53;94644.66;;;15.60;38.44
39223;BME280;24936;46.328;11.026;2023-02-21T10:00:22;94651.91;;;14.65;36.28
39223;BME280;24936;46.328;11.026;2023-02-21T10:05:56;94647.19;;;14.43;39.48
39223;BME280;24936;46.328;11.026;2023-02-21T10:16:43;94642.81;;;15.85;37.21
39223;BME280;24936;46.328;11.026;2023-02-21T10:19:17;94636.88;;;14.31;36.72
39223;BME280;24936;46.328;11.026;2023-02-21T10:21:47;94634.84;;;15.11;35.63
39223;BME280;24936;46.328;11.026;2023-02-21T10:24:17;94636.78;;;15.01;36.40
39223;BME280;24936;46.328;11.026;2023-02-21T10:26:49;94630.94;;;13.76;37.47
39223;BME280;24936;46.328;11.026;2023-02-21T10:29:21;94629.81;;;14.99;36.48
39223;BME280;24936;46.328;11.026;2023-02-21T10:31:51;94620.09;;;14.57;37.01
39223;BME280;24936;46.328;11.026;2023-02-21T10:34:23;94615.81;;;14.64;37.76
39223;BME280;24936;46.328;11.026;2023-02-21T10:36:51;94617.91;;;14.95;36.20
39223;BME280;24936;46.328;11.026;2023-02-21T10:39:21;94612.00;;;15.35;36.55
39223;BME280;24936;46.328;11.026;2023-02-21T10:41:48;94610.13;;;14.86;36.65
39223;BME280;24936;46.328;11.026;2023-02-21T10:44:25;94609.53;;;14.22;39.16
39223;BME280;24936;46.328;11.026;2023-02-21T10:47:14;94599.44;;;14.18;39.00
39223;BME280;24936;46.328;11.026;2023-02-21T10:50:00;94599.09;;;13.60;41.06
39223;BME280;24936;46.328;11.026;2023-02-21T10:52:26;94596.56;;;13.76;39.96
39223;BME280;24936;46.328;11.026;2023-02-21T10:55:03;94599.34;;;14.87;40.61
39223;BME280;24936;46.328;11.026;2023-02-21T10:57:32;94595.31;;;14.23;37.93
39223;BME280;24936;46.328;11.026;2023-02-21T10:59:58;94591.72;;;14.84;38.61
39223;BME280;24936;46.328;11.026;2023-02-21T11:02:29;94582.31;;;15.06;37.82
39223;BME280;24936;46.328;11.026;2023-02-21T11:05:07;94582.94;;;14.75;40.33
39223;BME280;24936;46.328;11.026;2023-02-21T11:07:33;94576.75;;;14.66;39.86
39223;BME280;24936;46.328;11.026;2023-02-21T11:09:59;94576.16;;;14.97;38.81
39223;BME280;24936;46.328;11.026;2023-02-21T11:12:26;94567.56;;;14.36;39.75
39223;BME280;24936;46.328;11.026;2023-02-21T11:17:27;94562.81;;;14.40;37.54
39223;BME280;24936;46.328;11.026;2023-02-21T11:20:14;94553.63;;;14.85;36.52
39223;BME280;24936;46.328;11.026;2023-02-21T11:22:46;94559.19;;;14.57;36.15
39223;BME280;24936;46.328;11.026;2023-02-21T11:25:25;94550.16;;;14.85;38.48
39223;BME280;24936;46.328;11.026;2023-02-21T11:28:02;94543.53;;;14.72;35.36
39223;BME280;24936;46.328;11.026;2023-02-21T11:30:31;94536.09;;;15.09;37.11
39223;BME280;24936;46.328;11.026;2023-02-21T11:32:59;94533.44;;;15.17;35.85
39223;BME280;24936;46.328;11.026;2023-02-21T11:35:48;94534.81;;;14.37;36.83
39223;BME280;24936;46.328;11.026;2023-02-21T11:38:35;94525.75;;;14.56;35.55
39223;BME280;24936;46.328;11.026;2023-02-21T11:41:02;94522.50;;;15.12;38.04
39223;BME280;24936;46.328;11.026;2023-02-21T11:43:29;94515.56;;;15.03;36.13
39223;BME280;24936;46.328;11.026;2023-02-21T11:46:32;94507.63;;;14.94;37.46
39223;BME280;24936;46.328;11.026;2023-02-21T11:49:16;94505.78;;;15.11;35.23
39223;BME280;24936;46.328;11.026;2023-02-21T11:51:50;94501.97;;;15.22;36.63
39223;BME280;24936;46.328;11.026;2023-02-21T11:54:25;94497.16;;;15.26;35.65
39223;BME280;24936;46.328;11.026;2023-02-21T11:56:56;94488.06;;;16.25;32.93
39223;BME280;24936;46.328;11.026;2023-02-21T12:09:52;94470.72;;;16.37;33.67
39223;BME280;24936;46.328;11.026;2023-02-21T12:21:07;94449.13;;;15.69;32.78
39223;BME280;24936;46.328;11.026;2023-02-21T12:35:03;94428.75;;;16.64;32.29
39223;BME280;24936;46.328;11.026;2023-02-21T12:40:26;94424.97;;;16.35;32.67
39223;BME280;24936;46.328;11.026;2023-02-21T12:45:38;94413.38;;;16.74;30.44
39223;BME280;24936;46.328;11.026;2023-02-21T12:51:07;94414.06;;;17.45;29.98
39223;BME280;24936;46.328;11.026;2023-02-21T12:56:11;94402.06;;;16.57;31.27
39223;BME280;24936;46.328;11.026;2023-02-21T13:01:19;94390.13;;;16.91;32.59
39223;BME280;24936;46.328;11.026;2023-02-21T13:06:54;94379.38;;;16.00;33.18
39223;BME280;24936;46.328;11.026;2023-02-21T13:09:42;94368.59;;;16.01;33.48
39223;BME280;24936;46.328;11.026;2023-02-21T13:12:20;94373.88;;;15.70;33.91
39223;BME280;24936;46.328;11.026;2023-02-21T13:14:50;94367.34;;;16.12;33.41
39223;BME280;24936;46.328;11.026;2023-02-21T13:17:18;94356.97;;;16.26;34.33
39223;BME280;24936;46.328;11.026;2023-02-21T13:30:41;94349.31;;;16.69;32.94
39223;BME280;24936;46.328;11.026;2023-02-21T13:36:00;94344.75;;;16.93;34.02
39223;BME280;24936;46.328;11.026;2023-02-21T13:38:29;94345.47;;;16.10;34.16
39223;BME280;24936;46.328;11.026;2023-02-21T13:41:08;94337.69;;;16.32;34.19
39223;BME280;24936;46.328;11.026;2023-02-21T13:43:36;94342.00;;;16.33;34.25
39223;BME280;24936;46.328;11.026;2023-02-21T14:13:37;94310.59;;;15.90;35.84
39223;BME280;24936;46.328;11.026;2023-02-21T14:22:16;94309.94;;;14.60;38.04
39223;BME280;24936;46.328;11.026;2023-02-21T14:24:47;94308.63;;;14.73;38.13
39223;BME280;24936;46.328;11.026;2023-02-21T14:32:41;94312.44;;;14.37;39.43
39223;BME280;24936;46.328;11.026;2023-02-21T14:35:31;94308.00;;;14.04;38.94
39223;BME280;24936;46.328;11.026;2023-02-21T14:38:06;94303.66;;;14.28;40.06
39223;BME280;24936;46.328;11.026;2023-02-21T14:41:04;94308.00;;;14.04;39.04
39223;BME280;24936;46.328;11.026;2023-02-21T14:46:39;94308.44;;;13.50;41.34
39223;BME280;24936;46.328;11.026;2023-02-21T14:52:49;94304.63;;;13.61;41.63
39223;BME280;24936;46.328;11.026;2023-02-21T14:55:25;94308.56;;;13.40;43.83
39223;BME280;24936;46.328;11.026;2023-02-21T14:58:37;94300.75;;;13.39;44.09
39223;BME280;24936;46.328;11.026;2023-02-21T15:01:05;94304.84;;;13.25;43.14
39223;BME280;24936;46.328;11.026;2023-02-21T15:06:42;94297.69;;;13.52;44.67
39223;BME280;24936;46.328;11.026;2023-02-21T15:09:17;94299.28;;;13.44;44.04
39223;BME280;24936;46.328;11.026;2023-02-21T15:11:43;94291.72;;;13.41;43.40
39223;BME280;24936;46.328;11.026;2023-02-21T15:16:52;94287.53;;;12.88;44.56
39223;BME280;24936;46.328;11.026;2023-02-21T15:19:41;94297.03;;;12.72;44.11
39223;BME280;24936;46.328;11.026;2023-02-21T15:22:13;94300.41;;;12.91;45.11
39223;BME280;24936;46.328;11.026;2023-02-21T15:24:39;94302.03;;;12.83;45.29
39223;BME280;24936;46.328;11.026;2023-02-21T15:27:12;94299.25;;;12.59;44.89
39223;BME280;24936;46.328;11.026;2023-02-21T15:29:39;94294.97;;;12.58;44.70
39223;BME280;24936;46.328;11.026;2023-02-21T15:32:06;94296.00;;;12.38;45.18
39223;BME280;24936;46.328;11.026;2023-02-21T15:34:52;94301.41;;;11.74;47.76
39223;BME280;24936;46.328;11.026;2023-02-21T15:37:23;94296.59;;;11.06;49.92
39223;BME280;24936;46.328;11.026;2023-02-21T15:39:59;94303.38;;;10.70;51.06
39223;BME280;24936;46.328;11.026;2023-02-21T15:42:26;94305.16;;;10.42;52.21
39223;BME280;24936;46.328;11.026;2023-02-21T15:44:59;94298.94;;;10.14;52.85
39223;BME280;24936;46.328;11.026;2023-02-21T15:47:27;94300.91;;;10.02;53.35
39223;BME280;24936;46.328;11.026;2023-02-21T15:50:15;94315.19;;;9.79;54.19
39223;BME280;24936;46.328;11.026;2023-02-21T15:52:43;94319.69;;;9.48;55.51
39223;BME280;24936;46.328;11.026;2023-02-21T15:57:45;94323.50;;;9.14;56.68
39223;BME280;24936;46.328;11.026;2023-02-21T16:02:51;94321.03;;;8.72;58.20
39223;BME280;24936;46.328;11.026;2023-02-21T16:05:28;94328.13;;;8.50;59.67